sensor_id;sensor_type;location;lat;lon;timestamp;pressure;altitude;pressure_sealevel;temperature;humidity
55550;BME280;41397;49.972;18.944;2023-03-21T00:01:53;101847.26;;;14.40;71.49
55550;BME280;41397;49.972;18.944;2023-03-21T00:04:56;101851.13;;;14.38;71.37
55550;BME280;41397;49.972;18.944;2023-03-21T00:07:57;101851.86;;;14.40;71.41
55550;BME280;41397;49.972;18.944;2023-03-21T00:11:01;101851.86;;;14.40;71.57
55550;BME280;41397;49.972;18.944;2023-03-21T00:14:03;101845.74;;;14.36;71.50
55550;BME280;41397;49.972;18.944;2023-03-21T00:17:08;101840.13;;;14.38;71.78
55550;BME280;41397;49.972;18.944;2023-03-21T00:20:10;101849.37;;;14.37;71.56
55550;BME280;41397;49.972;18.944;2023-03-21T00:23:14;101846.50;;;14.38;71.72
55550;BME280;41397;49.972;18.944;2023-03-21T00:26:16;101845.63;;;14.38;71.64
55550;BME280;41397;49.972;18.944;2023-03-21T00:29:18;101845.74;;;14.36;71.76
55550;BME280;41397;49.972;18.944;2023-03-21T00:32:20;101841.25;;;14.35;71.54
55550;BME280;41397;49.972;18.944;2023-03-21T00:35:22;101839.48;;;14.34;71.64
55550;BME280;41397;49.972;18.944;2023-03-21T00:38:23;101840.24;;;14.36;71.60
55550;BME280;41397;49.972;18.944;2023-03-21T00:41:25;101845.74;;;14.36;71.78
55550;BME280;41397;49.972;18.944;2023-03-21T00:44:27;101844.11;;;14.34;71.71
55550;BME280;41397;49.972;18.944;2023-03-21T00:47:28;101846.86;;;14.34;72.10
55550;BME280;41397;49.972;18.944;2023-03-21T00:50:30;101849.00;;;14.30;71.68
55550;BME280;41397;49.972;18.944;2023-03-21T00:53:34;101865.76;;;14.27;71.85
55550;BME280;41397;49.972;18.944;2023-03-21T00:56:36;101865.75;;;14.16;72.40
55550;BME280;41397;49.972;18.944;2023-03-21T00:59:37;101869.71;;;14.01;73.06
55550;BME280;41397;49.972;18.944;2023-03-21T01:02:39;101876.59;;;14.06;73.02
55550;BME280;41397;49.972;18.944;2023-03-21T01:05:53;101879.31;;;13.95;73.04
55550;BME280;41397;49.972;18.944;2023-03-21T01:09:14;101880.19;;;13.95;73.03
55550;BME280;41397;49.972;18.944;2023-03-21T01:12:16;101881.93;;;13.96;73.39
55550;BME280;41397;49.972;18.944;2023-03-21T01:15:18;101881.82;;;13.98;72.93
55550;BME280;41397;49.972;18.944;2023-03-21T01:18:22;101884.05;;;13.93;72.69
55550;BME280;41397;49.972;18.944;2023-03-21T01:21:26;101887.30;;;13.87;72.72
55550;BME280;41397;49.972;18.944;2023-03-21T01:24:28;101882.42;;;13.90;72.72
55550;BME280;41397;49.972;18.944;2023-03-21T01:27:30;101882.42;;;13.90;72.75
55550;BME280;41397;49.972;18.944;2023-03-21T01:30:32;101874.07;;;13.92;73.24
55550;BME280;41397;49.972;18.944;2023-03-21T01:33:34;101868.57;;;13.92;73.13
55550;BME280;41397;49.972;18.944;2023-03-21T01:36:36;101869.44;;;13.92;72.82
55550;BME280;41397;49.972;18.944;2023-03-21T01:39:37;101853.81;;;13.93;72.52
55550;BME280;41397;49.972;18.944;2023-03-21T01:42:39;101851.05;;;13.93;72.78
55550;BME280;41397;49.972;18.944;2023-03-21T01:49:22;101854.67;;;13.93;72.24
55550;BME280;41397;49.972;18.944;2023-03-21T01:52:11;101850.05;;;13.94;72.28
55550;BME280;41397;49.972;18.944;2023-03-21T01:55:17;101846.56;;;13.92;72.12
55550;BME280;41397;49.972;18.944;2023-03-21T01:58:19;101840.06;;;13.93;71.84
55550;BME280;41397;49.972;18.944;2023-03-21T02:01:21;101845.30;;;13.96;72.03
55550;BME280;41397;49.972;18.944;2023-03-21T02:04:24;101844.44;;;13.95;72.21
55550;BME280;41397;49.972;18.944;2023-03-21T02:07:31;101831.80;;;13.93;72.91
55550;BME280;41397;49.972;18.944;2023-03-21T02:10:35;101831.80;;;13.93;72.50
55550;BME280;41397;49.972;18.944;2023-03-21T02:13:42;101834.69;;;13.91;72.37
55550;BME280;41397;49.972;18.944;2023-03-21T02:29:55;101837.38;;;13.80;71.73
55550;BME280;41397;49.972;18.944;2023-03-21T02:33:04;101837.53;;;13.79;71.79
55550;BME280;41397;49.972;18.944;2023-03-21T02:39:29;101834.16;;;13.75;71.41
55550;BME280;41397;49.972;18.944;2023-03-21T02:49:53;101840.98;;;13.69;70.68
55550;BME280;41397;49.972;18.944;2023-03-21T02:52:25;101843.87;;;13.68;70.54
55550;BME280;41397;49.972;18.944;2023-03-21T02:55:31;101832.98;;;13.66;70.21
55550;BME280;41397;49.972;18.944;2023-03-21T02:58:34;101841.23;;;13.66;70.24
55550;BME280;41397;49.972;18.944;2023-03-21T03:01:37;101835.87;;;13.65;70.22
55550;BME280;41397;49.972;18.944;2023-03-21T03:04:38;101838.85;;;13.62;70.25
55550;BME280;41397;49.972;18.944;2023-03-21T03:11:07;101834.34;;;13.61;69.94
55550;BME280;41397;49.972;18.944;2023-03-21T03:14:57;101834.48;;;13.59;69.88
55550;BME280;41397;49.972;18.944;2023-03-21T03:27:09;101839.80;;;13.49;70.79
55550;BME280;41397;49.972;18.944;2023-03-21T03:30:17;101837.91;;;13.50;70.53
55550;BME280;41397;49.972;18.944;2023-03-21T03:33:23;101830.92;;;13.46;70.38
55550;BME280;41397;49.972;18.944;2023-03-21T03:36:30;101835.41;;;13.47;70.37
55550;BME280;41397;49.972;18.944;2023-03-21T03:39:48;101833.52;;;13.47;70.11
55550;BME280;41397;49.972;18.944;2023-03-21T03:42:53;101828.04;;;13.47;70.43
55550;BME280;41397;49.972;18.944;2023-03-21T03:46:03;101821.81;;;13.45;70.41
55550;BME280;41397;49.972;18.944;2023-03-21T03:49:13;101821.91;;;13.44;70.23
55550;BME280;41397;49.972;18.944;2023-03-21T03:52:25;101826.63;;;13.42;70.36
55550;BME280;41397;49.972;18.944;2023-03-21T03:55:30;101830.29;;;13.42;70.22
55550;BME280;41397;49.972;18.944;2023-03-21T03:58:34;101826.78;;;13.40;70.25
55550;BME280;41397;49.972;18.944;2023-03-21T04:01:38;101827.75;;;13.39;70.19
55550;BME280;41397;49.972;18.944;2023-03-21T04:04:41;101821.39;;;13.39;70.25
55550;BME280;41397;49.972;18.944;2023-03-21T04:07:42;101819.51;;;13.39;70.23
55550;BME280;41397;49.972;18.944;2023-03-21T04:10:44;101823.02;;;13.41;69.95
55550;BME280;41397;49.972;18.944;2023-03-21T04:13:46;101835.03;;;13.40;70.07
55550;BME280;41397;49.972;18.944;2023-03-21T04:16:48;101828.66;;;13.40;70.01
55550;BME280;41397;49.972;18.944;2023-03-21T04:19:52;101824.27;;;13.37;70.21
55550;BME280;41397;49.972;18.944;2023-03-21T04:22:54;101826.88;;;13.39;70.00
55550;BME280;41397;49.972;18.944;2023-03-21T04:25:57;101835.27;;;13.37;70.39
55550;BME280;41397;49.972;18.944;2023-03-21T04:28:59;101825.39;;;13.35;70.25
55550;BME280;41397;49.972;18.944;2023-03-21T04:32:03;101827.13;;;13.36;70.33
55550;BME280;41397;49.972;18.944;2023-03-21T04:35:13;101827.02;;;13.37;70.20
55550;BME280;41397;49.972;18.944;2023-03-21T04:38:15;101832.63;;;13.36;71.12
55550;BME280;41397;49.972;18.944;2023-03-21T04:41:16;101827.99;;;13.36;70.77
55550;BME280;41397;49.972;18.944;2023-03-21T04:44:18;101818.13;;;13.33;70.61
55550;BME280;41397;49.972;18.944;2023-03-21T04:47:21;101822.50;;;13.36;70.93
55550;BME280;41397;49.972;18.944;2023-03-21T04:50:22;101819.75;;;13.36;70.81
55550;BME280;41397;49.972;18.944;2023-03-21T04:53:24;101825.15;;;13.38;70.67
55550;BME280;41397;49.972;18.944;2023-03-21T04:56:27;101824.38;;;13.36;70.63
55550;BME280;41397;49.972;18.944;2023-03-21T04:59:36;101828.14;;;13.35;70.98
55550;BME280;41397;49.972;18.944;2023-03-21T05:02:38;101829.11;;;13.33;70.85
55550;BME280;41397;49.972;18.944;2023-03-21T05:05:40;101829.23;;;13.32;70.77
55550;BME280;41397;49.972;18.944;2023-03-21T05:08:42;101827.13;;;13.36;70.89
55550;BME280;41397;49.972;18.944;2023-03-21T05:11:43;101835.27;;;13.37;70.95
55550;BME280;41397;49.972;18.944;2023-03-21T05:14:45;101825.15;;;13.38;70.91
55550;BME280;41397;49.972;18.944;2023-03-21T05:17:47;101829.77;;;13.37;71.01
55550;BME280;41397;49.972;18.944;2023-03-21T05:20:51;101829.77;;;13.37;70.91
55550;BME280;41397;49.972;18.944;2023-03-21T05:23:55;101841.63;;;13.38;71.53
55550;BME280;41397;49.972;18.944;2023-03-21T05:27:04;101845.35;;;13.37;71.11
55550;BME280;41397;49.972;18.944;2023-03-21T05:30:13;101843.27;;;13.40;71.45
55550;BME280;41397;49.972;18.944;2023-03-21T05:33:15;101833.14;;;13.41;71.16
55550;BME280;41397;49.972;18.944;2023-03-21T05:36:16;101838.54;;;13.42;71.77
55550;BME280;41397;49.972;18.944;2023-03-21T05:39:18;101836.52;;;13.44;71.55
55550;BME280;41397;49.972;18.944;2023-03-21T05:42:20;101838.30;;;13.45;71.70
55550;BME280;41397;49.972;18.944;2023-03-21T05:45:22;101835.41;;;13.47;72.51
55550;BME280;41397;49.972;18.944;2023-03-21T05:48:24;101830.79;;;13.47;72.35
55550;BME280;41397;49.972;18.944;2023-03-21T05:51:30;101831.45;;;13.51;72.13
55550;BME280;41397;49.972;18.944;2023-03-21T05:54:38;101842.45;;;13.51;71.93
55550;BME280;41397;49.972;18.944;2023-03-21T05:57:40;101836.56;;;13.55;71.61
55550;BME280;41397;49.972;18.944;2023-03-21T06:00:41;101842.06;;;13.55;71.69
55550;BME280;41397;49.972;18.944;2023-03-21T06:03:43;101834.58;;;13.58;71.72
55550;BME280;41397;49.972;18.944;2023-03-21T06:06:46;101848.08;;;13.61;71.68
55550;BME280;41397;49.972;18.944;2023-03-21T06:09:47;101847.73;;;13.65;72.02
55550;BME280;41397;49.972;18.944;2023-03-21T06:12:49;101843.00;;;13.67;72.26
55550;BME280;41397;49.972;18.944;2023-03-21T06:15:50;101838.37;;;13.68;72.11
55550;BME280;41397;49.972;18.944;2023-03-21T06:18:54;101843.98;;;13.66;72.04
55550;BME280;41397;49.972;18.944;2023-03-21T06:21:56;101845.61;;;13.69;71.90
55550;BME280;41397;49.972;18.944;2023-03-21T06:24:57;101841.75;;;13.71;71.97
55550;BME280;41397;49.972;18.944;2023-03-21T06:27:59;101838.64;;;13.76;72.14
55550;BME280;41397;49.972;18.944;2023-03-21T06:31:02;101842.16;;;13.78;72.38
55550;BME280;41397;49.972;18.944;2023-03-21T06:34:05;101843.66;;;13.82;72.35
55550;BME280;41397;49.972;18.944;2023-03-21T06:37:06;101836.93;;;13.86;72.04
55550;BME280;41397;49.972;18.944;2023-03-21T06:40:09;101844.94;;;13.89;72.43
55550;BME280;41397;49.972;18.944;2023-03-21T06:43:11;101852.94;;;13.92;71.78
55550;BME280;41397;49.972;18.944;2023-03-21T06:46:12;101848.82;;;13.98;72.04
55550;BME280;41397;49.972;18.944;2023-03-21T06:49:14;101857.70;;;14.02;71.63
55550;BME280;41397;49.972;18.944;2023-03-21T06:52:15;101854.70;;;14.05;71.77
55550;BME280;41397;49.972;18.944;2023-03-21T06:55:18;101848.84;;;14.09;72.46
55550;BME280;41397;49.972;18.944;2023-03-21T06:58:26;101851.99;;;14.16;72.04
55550;BME280;41397;49.972;18.944;2023-03-21T07:01:31;101852.36;;;14.23;71.59
55550;BME280;41397;49.972;18.944;2023-03-21T07:04:32;101860.88;;;14.31;72.17
55550;BME280;41397;49.972;18.944;2023-03-21T07:07:34;101858.02;;;14.32;70.90
55550;BME280;41397;49.972;18.944;2023-03-21T07:10:41;101861.38;;;14.36;70.40
55550;BME280;41397;49.972;18.944;2023-03-21T07:13:43;101866.63;;;14.39;69.89
55550;BME280;41397;49.972;18.944;2023-03-21T07:16:45;101876.88;;;14.37;70.59
55550;BME280;41397;49.972;18.944;2023-03-21T07:19:47;101875.91;;;14.38;70.42
55550;BME280;41397;49.972;18.944;2023-03-21T07:22:50;101876.78;;;14.38;70.25
55550;BME280;41397;49.972;18.944;2023-03-21T07:25:52;101879.64;;;14.37;70.03
55550;BME280;41397;49.972;18.944;2023-03-21T07:28:53;101879.78;;;14.35;70.13
55550;BME280;41397;49.972;18.944;2023-03-21T07:31:55;101885.28;;;14.35;69.80
55550;BME280;41397;49.972;18.944;2023-03-21T07:34:57;101886.26;;;14.34;69.90
55550;BME280;41397;49.972;18.944;2023-03-21T07:37:58;101882.78;;;14.32;69.91
55550;BME280;41397;49.972;18.944;2023-03-21T07:41:00;101894.01;;;14.29;70.18
55550;BME280;41397;49.972;18.944;2023-03-21T07:44:01;101901.38;;;14.29;70.32
55550;BME280;41397;49.972;18.944;2023-03-21T07:47:04;101896.27;;;14.24;70.46
55550;BME280;41397;49.972;18.944;2023-03-21T07:50:06;101899.91;;;14.25;70.87
55550;BME280;41397;49.972;18.944;2023-03-21T07:53:08;101909.77;;;14.16;70.83
55550;BME280;41397;49.972;18.944;2023-03-21T07:59:40;101913.41;;;13.81;71.60
55550;BME280;41397;49.972;18.944;2023-03-21T08:02:42;101922.70;;;13.91;71.92
55550;BME280;41397;49.972;18.944;2023-03-21T08:05:43;101915.84;;;13.97;72.45
55550;BME280;41397;49.972;18.944;2023-03-21T08:08:46;101911.80;;;13.90;72.66
55550;BME280;41397;49.972;18.944;2023-03-21T08:18:44;101911.59;;;14.04;72.15
55550;BME280;41397;49.972;18.944;2023-03-21T08:25:15;101917.26;;;14.14;72.29
55550;BME280;41397;49.972;18.944;2023-03-21T09:09:30;101943.96;;;14.47;71.51
55550;BME280;41397;49.972;18.944;2023-03-21T09:12:33;101935.59;;;14.49;71.22
55550;BME280;41397;49.972;18.944;2023-03-21T09:15:35;101935.75;;;14.58;71.49
55550;BME280;41397;49.972;18.944;2023-03-21T09:18:37;101941.25;;;14.70;75.67
55550;BME280;41397;49.972;18.944;2023-03-21T09:21:49;101941.76;;;14.86;75.17
55550;BME280;41397;49.972;18.944;2023-03-21T09:24:53;101946.13;;;15.11;77.32
55550;BME280;41397;49.972;18.944;2023-03-21T09:27:54;101943.20;;;15.35;79.23
55550;BME280;41397;49.972;18.944;2023-03-21T09:31:00;101940.54;;;15.56;75.31
55550;BME280;41397;49.972;18.944;2023-03-21T09:34:04;101947.28;;;15.74;76.19
55550;BME280;41397;49.972;18.944;2023-03-21T09:37:07;101950.48;;;15.91;73.33
55550;BME280;41397;49.972;18.944;2023-03-21T09:40:17;101945.90;;;16.01;75.78
55550;BME280;41397;49.972;18.944;2023-03-21T10:09:54;101950.61;;;15.35;65.76
55550;BME280;41397;49.972;18.944;2023-03-21T10:13:04;101956.16;;;15.12;65.39
55550;BME280;41397;49.972;18.944;2023-03-21T10:19:36;101954.26;;;15.24;65.86
55550;BME280;41397;49.972;18.944;2023-03-21T10:49:48;101952.25;;;15.26;66.36
55550;BME280;41397;49.972;18.944;2023-03-21T10:52:52;101946.13;;;15.22;65.53
55550;BME280;41397;49.972;18.944;2023-03-21T10:56:02;101949.51;;;15.26;65.95
55550;BME280;41397;49.972;18.944;2023-03-21T10:59:21;101952.25;;;15.26;65.68
55550;BME280;41397;49.972;18.944;2023-03-21T11:25:52;101947.06;;;15.44;65.10
55550;BME280;41397;49.972;18.944;2023-03-21T11:28:54;101942.84;;;15.40;65.70
55550;BME280;41397;49.972;18.944;2023-03-21T12:16:27;101922.52;;;15.41;64.24
55550;BME280;41397;49.972;18.944;2023-03-21T12:36:33;101910.05;;;15.25;64.16
55550;BME280;41397;49.972;18.944;2023-03-21T12:39:38;101906.02;;;15.29;64.13
55550;BME280;41397;49.972;18.944;2023-03-21T12:42:51;101896.02;;;15.28;64.21
55550;BME280;41397;49.972;18.944;2023-03-21T12:46:00;101901.37;;;15.30;63.98
55550;BME280;41397;49.972;18.944;2023-03-21T12:52:28;101893.26;;;15.28;64.24
55550;BME280;41397;49.972;18.944;2023-03-21T12:55:34;101889.10;;;15.34;64.77
55550;BME280;41397;49.972;18.944;2023-03-21T12:58:51;101892.38;;;15.28;64.08
55550;BME280;41397;49.972;18.944;2023-03-21T13:01:52;101883.97;;;15.29;63.94
55550;BME280;41397;49.972;18.944;2023-03-21T13:08:22;101890.98;;;15.34;64.79
55550;BME280;41397;49.972;18.944;2023-03-21T13:11:28;101880.69;;;15.36;64.05
55550;BME280;41397;49.972;18.944;2023-03-21T13:14:37;101883.21;;;15.39;63.98
55550;BME280;41397;49.972;18.944;2023-03-21T13:17:47;101886.95;;;15.38;64.24
55550;BME280;41397;49.972;18.944;2023-03-21T13:20:56;101881.59;;;15.36;63.64
55550;BME280;41397;49.972;18.944;2023-03-21T13:30:27;101876.72;;;15.28;63.99
55550;BME280;41397;49.972;18.944;2023-03-21T13:33:29;101865.70;;;15.28;64.25
55550;BME280;41397;49.972;18.944;2023-03-21T13:36:35;101868.29;;;15.30;64.17
55550;BME280;41397;49.972;18.944;2023-03-21T13:39:44;101868.06;;;15.22;63.33
55550;BME280;41397;49.972;18.944;2023-03-21T13:42:54;101874.98;;;15.16;64.15
55550;BME280;41397;49.972;18.944;2023-03-21T13:46:08;101871.50;;;15.14;63.59
55550;BME280;41397;49.972;18.944;2023-03-21T14:02:32;101861.16;;;15.27;63.22
55550;BME280;41397;49.972;18.944;2023-03-21T14:05:35;101856.94;;;15.23;63.31
55550;BME280;41397;49.972;18.944;2023-03-21T14:08:46;101862.97;;;15.17;63.11
55550;BME280;41397;49.972;18.944;2023-03-21T14:12:11;101859.80;;;15.22;63.56
55550;BME280;41397;49.972;18.944;2023-03-21T14:15:28;101850.41;;;15.24;64.02
55550;BME280;41397;49.972;18.944;2023-03-21T14:22:20;101849.68;;;15.22;62.74
55550;BME280;41397;49.972;18.944;2023-03-21T14:25:23;101849.68;;;15.22;62.90
55550;BME280;41397;49.972;18.944;2023-03-21T14:28:27;101848.52;;;15.25;63.22
55550;BME280;41397;49.972;18.944;2023-03-21T14:34:58;101850.63;;;15.32;63.77
55550;BME280;41397;49.972;18.944;2023-03-21T14:38:03;101842.09;;;15.36;63.72
55550;BME280;41397;49.972;18.944;2023-03-21T14:44:26;101841.38;;;15.34;63.28
55550;BME280;41397;49.972;18.944;2023-03-21T14:57:24;101839.61;;;15.32;63.42
55550;BME280;41397;49.972;18.944;2023-03-21T15:04:15;101843.98;;;15.35;63.56
55550;BME280;41397;49.972;18.944;2023-03-21T15:07:24;101846.63;;;15.37;63.09
55550;BME280;41397;49.972;18.944;2023-03-21T15:10:35;101830.34;;;15.34;62.99
55550;BME280;41397;49.972;18.944;2023-03-21T15:24:14;101826.23;;;15.28;62.35
55550;BME280;41397;49.972;18.944;2023-03-21T15:27:37;101826.44;;;15.04;62.11
55550;BME280;41397;49.972;18.944;2023-03-21T15:30:51;101831.98;;;14.93;62.59
55550;BME280;41397;49.972;18.944;2023-03-21T15:33:54;101824.31;;;14.96;62.58
55550;BME280;41397;49.972;18.944;2023-03-21T15:37:01;101823.24;;;14.76;62.04
55550;BME280;41397;49.972;18.944;2023-03-21T15:43:37;101820.58;;;14.86;63.11
55550;BME280;41397;49.972;18.944;2023-03-21T15:46:46;101814.96;;;14.87;62.66
55550;BME280;41397;49.972;18.944;2023-03-21T15:49:52;101815.45;;;14.93;62.71
55550;BME280;41397;49.972;18.944;2023-03-21T15:52:58;101812.55;;;14.94;62.74
55550;BME280;41397;49.972;18.944;2023-03-21T15:56:02;101807.91;;;14.95;62.89
55550;BME280;41397;49.972;18.944;2023-03-21T15:59:05;101807.91;;;14.95;62.74
55550;BME280;41397;49.972;18.944;2023-03-21T16:02:18;101813.30;;;14.96;62.93
55550;BME280;41397;49.972;18.944;2023-03-21T16:12:13;101826.96;;;14.98;62.68
55550;BME280;41397;49.972;18.944;2023-03-21T16:15:18;101813.19;;;14.98;62.37
55550;BME280;41397;49.972;18.944;2023-03-21T16:18:23;101819.83;;;14.95;62.85
55550;BME280;41397;49.972;18.944;2023-03-21T16:21:33;101816.17;;;14.95;62.17
55550;BME280;41397;49.972;18.944;2023-03-21T16:24:48;101826.20;;;14.96;62.76
55550;BME280;41397;49.972;18.944;2023-03-21T16:27:56;101823.45;;;14.96;62.73
55550;BME280;41397;49.972;18.944;2023-03-21T16:30:58;101837.22;;;14.96;62.74
55550;BME280;41397;49.972;18.944;2023-03-21T16:34:03;101839.11;;;14.95;62.63
55550;BME280;41397;49.972;18.944;2023-03-21T16:52:34;101830.34;;;14.90;63.07
55550;BME280;41397;49.972;18.944;2023-03-21T16:55:37;101836.73;;;14.91;62.97
55550;BME280;41397;49.972;18.944;2023-03-21T16:58:42;101839.59;;;14.89;62.75
55550;BME280;41397;49.972;18.944;2023-03-21T17:01:44;101836.12;;;14.87;62.94
55550;BME280;41397;49.972;18.944;2023-03-21T17:04:49;101836.35;;;14.84;62.90
55550;BME280;41397;49.972;18.944;2023-03-21T17:07:56;101844.00;;;14.80;63.11
55550;BME280;41397;49.972;18.944;2023-03-21T17:11:02;101842.88;;;14.83;63.18
55550;BME280;41397;49.972;18.944;2023-03-21T17:14:08;101838.49;;;14.80;63.24
55550;BME280;41397;49.972;18.944;2023-03-21T17:17:11;101841.39;;;14.79;63.19
55550;BME280;41397;49.972;18.944;2023-03-21T17:57:00;101838.86;;;14.42;63.75
55550;BME280;41397;49.972;18.944;2023-03-21T18:00:05;101840.74;;;14.41;63.90
55550;BME280;41397;49.972;18.944;2023-03-21T18:06:44;101851.76;;;14.41;64.37
55550;BME280;41397;49.972;18.944;2023-03-21T18:19:15;101851.24;;;14.36;64.42
55550;BME280;41397;49.972;18.944;2023-03-21T18:28:29;101863.99;;;14.26;64.56
55550;BME280;41397;49.972;18.944;2023-03-21T18:53:29;101862.51;;;14.22;65.65
55550;BME280;41397;49.972;18.944;2023-03-21T18:59:52;101867.13;;;14.21;65.90
55550;BME280;41397;49.972;18.944;2023-03-21T19:13:19;101856.34;;;14.18;65.84
55550;BME280;41397;49.972;18.944;2023-03-21T19:16:24;101858.23;;;14.18;65.84
55550;BME280;41397;49.972;18.944;2023-03-21T19:29:55;101869.47;;;14.15;65.92
55550;BME280;41397;49.972;18.944;2023-03-21T19:32:59;101875.13;;;14.13;66.40
55550;BME280;41397;49.972;18.944;2023-03-21T19:36:01;101866.10;;;14.11;66.37
55550;BME280;41397;49.972;18.944;2023-03-21T19:39:10;101865.10;;;14.12;66.28
55550;BME280;41397;49.972;18.944;2023-03-21T19:42:21;101863.21;;;14.13;66.47
55550;BME280;41397;49.972;18.944;2023-03-21T19:45:26;101866.10;;;14.11;66.38
55550;BME280;41397;49.972;18.944;2023-03-21T19:48:27;101866.98;;;14.12;66.18
55550;BME280;41397;49.972;18.944;2023-03-21T19:54:59;101861.23;;;14.15;66.66
55550;BME280;41397;49.972;18.944;2023-03-21T19:58:01;101873.34;;;14.12;66.68
55550;BME280;41397;49.972;18.944;2023-03-21T20:01:02;101864.99;;;14.14;66.44
55550;BME280;41397;49.972;18.944;2023-03-21T20:04:04;101867.09;;;14.10;66.58
55550;BME280;41397;49.972;18.944;2023-03-21T20:07:06;101865.49;;;14.08;66.90
55550;BME280;41397;49.972;18.944;2023-03-21T20:10:09;101871.20;;;14.05;66.89
55550;BME280;41397;49.972;18.944;2023-03-21T20:13:11;101862.95;;;14.05;66.89
55550;BME280;41397;49.972;18.944;2023-03-21T20:16:12;101870.22;;;14.06;66.65
55550;BME280;41397;49.972;18.944;2023-03-21T20:19:14;101867.59;;;14.04;66.67
55550;BME280;41397;49.972;18.944;2023-03-21T20:22:18;101865.95;;;14.02;66.93
55550;BME280;41397;49.972;18.944;2023-03-21T20:25:23;101868.84;;;14.00;66.91
55550;BME280;41397;49.972;18.944;2023-03-21T20:28:24;101868.06;;;13.98;66.97
55550;BME280;41397;49.972;18.944;2023-03-21T20:31:26;101867.07;;;13.99;66.97
55550;BME280;41397;49.972;18.944;2023-03-21T20:34:27;101866.33;;;13.97;66.71
55550;BME280;41397;49.972;18.944;2023-03-21T20:37:30;101869.09;;;13.97;66.73
55550;BME280;41397;49.972;18.944;2023-03-21T20:40:32;101863.07;;;13.92;66.64
55550;BME280;41397;49.972;18.944;2023-03-21T20:43:33;101857.57;;;13.92;66.58
55550;BME280;41397;49.972;18.944;2023-03-21T20:46:35;101864.80;;;13.93;66.73
55550;BME280;41397;49.972;18.944;2023-03-21T20:49:37;101868.32;;;13.95;66.40
55550;BME280;41397;49.972;18.944;2023-03-21T20:52:40;101854.05;;;13.90;66.68
55550;BME280;41397;49.972;18.944;2023-03-21T20:55:45;101859.55;;;13.90;66.23
55550;BME280;41397;49.972;18.944;2023-03-21T20:58:47;101853.43;;;13.86;66.86
55550;BME280;41397;49.972;18.944;2023-03-21T21:01:48;101856.04;;;13.88;66.75
55550;BME280;41397;49.972;18.944;2023-03-21T21:04:50;101849.92;;;13.84;66.67
55550;BME280;41397;49.972;18.944;2023-03-21T21:11:26;101858.16;;;13.84;66.68
55550;BME280;41397;49.972;18.944;2023-03-21T21:14:28;101848.17;;;13.83;66.60
55550;BME280;41397;49.972;18.944;2023-03-21T21:17:30;101847.52;;;13.80;66.78
55550;BME280;41397;49.972;18.944;2023-03-21T21:20:35;101848.53;;;13.79;66.68
55550;BME280;41397;49.972;18.944;2023-03-21T21:23:38;101849.65;;;13.76;66.91
55550;BME280;41397;49.972;18.944;2023-03-21T21:26:40;101856.25;;;13.73;67.01
55550;BME280;41397;49.972;18.944;2023-03-21T21:29:56;101851.98;;;13.69;67.28
55550;BME280;41397;49.972;18.944;2023-03-21T21:33:08;101854.97;;;13.66;67.06
55550;BME280;41397;49.972;18.944;2023-03-21T21:43:05;101854.69;;;13.58;67.30
55550;BME280;41397;49.972;18.944;2023-03-21T21:50:02;101853.44;;;13.51;67.29
55550;BME280;41397;49.972;18.944;2023-03-21T21:53:03;101866.30;;;13.50;67.21
55550;BME280;41397;49.972;18.944;2023-03-21T21:56:08;101852.03;;;13.45;67.42
55550;BME280;41397;49.972;18.944;2023-03-21T21:59:11;101855.65;;;13.46;67.05
55550;BME280;41397;49.972;18.944;2023-03-21T22:02:16;101864.00;;;13.44;67.34
55550;BME280;41397;49.972;18.944;2023-03-21T22:05:18;101858.65;;;13.43;67.15
55550;BME280;41397;49.972;18.944;2023-03-21T22:08:21;101857.88;;;13.41;67.41
55550;BME280;41397;49.972;18.944;2023-03-21T22:11:23;101847.13;;;13.38;67.22
55550;BME280;41397;49.972;18.944;2023-03-21T22:14:28;101853.39;;;13.40;67.57
55550;BME280;41397;49.972;18.944;2023-03-21T22:17:39;101848.09;;;13.37;67.69
55550;BME280;41397;49.972;18.944;2023-03-21T22:20:46;101854.59;;;13.36;67.49
55550;BME280;41397;49.972;18.944;2023-03-21T22:23:57;101853.84;;;13.33;67.73
55550;BME280;41397;49.972;18.944;2023-03-21T22:27:01;101856.58;;;13.33;67.64
55550;BME280;41397;49.972;18.944;2023-03-21T22:30:09;101857.70;;;13.31;67.88
55550;BME280;41397;49.972;18.944;2023-03-21T22:33:13;101855.09;;;13.29;67.78
55550;BME280;41397;49.972;18.944;2023-03-21T22:36:22;101849.45;;;13.31;68.08
55550;BME280;41397;49.972;18.944;2023-03-21T22:39:25;101853.30;;;13.28;68.00
55550;BME280;41397;49.972;18.944;2023-03-21T22:42:28;101850.76;;;13.25;68.25
55550;BME280;41397;49.972;18.944;2023-03-21T22:45:30;101847.80;;;13.28;68.09
55550;BME280;41397;49.972;18.944;2023-03-21T22:48:34;101854.21;;;13.29;68.17
55550;BME280;41397;49.972;18.944;2023-03-21T22:51:36;101850.45;;;13.30;68.11
55550;BME280;41397;49.972;18.944;2023-03-21T22:54:38;101838.70;;;13.28;68.34
55550;BME280;41397;49.972;18.944;2023-03-21T22:57:40;101833.34;;;13.26;68.15
55550;BME280;41397;49.972;18.944;2023-03-21T23:00:41;101838.14;;;13.23;68.25
55550;BME280;41397;49.972;18.944;2023-03-21T23:03:43;101840.39;;;13.18;68.20
55550;BME280;41397;49.972;18.944;2023-03-21T23:06:44;101828.11;;;13.10;68.30
55550;BME280;41397;49.972;18.944;2023-03-21T23:09:46;101820.10;;;13.07;68.27
55550;BME280;41397;49.972;18.944;2023-03-21T23:12:47;101809.80;;;12.98;68.80
55550;BME280;41397;49.972;18.944;2023-03-21T23:15:49;101809.50;;;12.90;69.06